createdAt,value
2018-01-16T00:02:20.054Z,14.40
2018-01-16T00:04:47.533Z,19.87
2018-01-16T00:07:14.985Z,14.80
2018-01-16T00:09:42.461Z,15.60
2018-01-16T00:12:10.062Z,17.57
2018-01-16T00:14:37.525Z,15.73
2018-01-16T00:17:04.982Z,22.63
2018-01-16T00:19:32.478Z,22.17
2018-01-16T00:21:59.981Z,17.80
2018-01-16T00:24:27.461Z,17.37
2018-01-16T00:26:54.945Z,32.03
2018-01-16T00:29:22.894Z,25.03
2018-01-16T00:31:50.351Z,15.80
2018-01-16T00:34:17.826Z,16.90
2018-01-16T00:36:45.375Z,14.57
2018-01-16T00:39:12.925Z,13.77
2018-01-16T00:41:40.416Z,24.33
2018-01-16T00:44:07.918Z,24.00
2018-01-16T00:46:35.409Z,14.30
2018-01-16T00:49:02.906Z,26.70
2018-01-16T00:51:30.425Z,11.53
2018-01-16T00:53:57.967Z,25.53
2018-01-16T00:56:25.440Z,12.40
2018-01-16T00:58:53.096Z,24.30
2018-01-16T01:01:20.657Z,18.50
2018-01-16T01:03:48.141Z,15.60
2018-01-16T01:06:15.692Z,22.77
2018-01-16T01:08:43.212Z,12.30
2018-01-16T01:11:10.686Z,11.80
2018-01-16T01:13:38.221Z,20.90
2018-01-16T01:16:05.706Z,27.13
2018-01-16T01:18:33.231Z,16.77
2018-01-16T01:21:01.131Z,17.27
2018-01-16T01:23:28.625Z,30.73
2018-01-16T01:25:56.151Z,15.53
2018-01-16T01:28:23.700Z,27.30
2018-01-16T01:30:51.164Z,28.23
2018-01-16T01:33:18.647Z,32.07
2018-01-16T01:35:46.263Z,20.63
2018-01-16T01:38:13.738Z,15.80
2018-01-16T01:40:41.200Z,21.77
2018-01-16T01:43:08.727Z,19.50
2018-01-16T01:45:36.212Z,24.43
2018-01-16T01:48:03.665Z,23.03
2018-01-16T01:50:31.129Z,18.60
2018-01-16T01:52:58.601Z,14.13
2018-01-16T01:55:26.098Z,19.07
2018-01-16T01:57:53.689Z,22.23
2018-01-16T02:00:21.259Z,17.77
2018-01-16T02:02:48.741Z,22.13
2018-01-16T02:05:16.254Z,13.10
2018-01-16T02:07:43.716Z,20.27
2018-01-16T02:10:11.195Z,24.00
2018-01-16T02:12:38.673Z,25.87
2018-01-16T02:15:06.127Z,17.20
2018-01-16T02:17:33.593Z,22.97
2018-01-16T02:20:01.081Z,17.90
2018-01-16T02:22:28.573Z,23.50
2018-01-16T02:24:56.037Z,22.60
2018-01-16T02:27:23.657Z,15.40
2018-01-16T02:29:51.150Z,19.73
2018-01-16T02:32:18.607Z,16.47
2018-01-16T02:34:46.105Z,20.03
2018-01-16T02:37:13.633Z,20.87
2018-01-16T02:39:41.114Z,15.07
2018-01-16T02:42:08.571Z,25.60
2018-01-16T02:44:36.051Z,15.97
2018-01-16T02:47:03.525Z,23.73
2018-01-16T02:49:30.981Z,25.90
2018-01-16T02:51:58.676Z,18.70
2018-01-16T02:54:26.149Z,17.30
2018-01-16T02:56:53.669Z,20.57
2018-01-16T02:59:21.321Z,27.70
2018-01-16T03:01:48.776Z,27.57
2018-01-16T03:04:16.250Z,27.33
2018-01-16T03:06:43.718Z,23.20
2018-01-16T03:09:11.427Z,28.27
2018-01-16T03:11:38.890Z,19.30
2018-01-16T03:14:06.382Z,22.70
2018-01-16T03:16:33.878Z,22.00
2018-01-16T03:19:01.346Z,19.30
2018-01-16T03:21:28.825Z,18.90
2018-01-16T03:23:56.278Z,21.17
2018-01-16T03:26:23.753Z,17.13
2018-01-16T03:28:51.229Z,19.03
2018-01-16T03:31:18.674Z,21.67
2018-01-16T03:33:46.150Z,16.07
2018-01-16T03:36:13.622Z,15.13
2018-01-16T03:38:41.108Z,18.37
2018-01-16T03:41:08.563Z,20.97
2018-01-16T03:43:36.491Z,20.30
2018-01-16T03:46:03.950Z,22.43
2018-01-16T03:48:31.407Z,27.30
2018-01-16T03:50:58.870Z,18.93
2018-01-16T03:53:26.349Z,15.50
2018-01-16T03:55:53.819Z,14.53
2018-01-16T03:58:21.322Z,17.07
2018-01-16T04:00:48.804Z,18.70
2018-01-16T04:03:16.285Z,24.63
2018-01-16T04:05:43.774Z,18.67
2018-01-16T04:08:11.242Z,18.77
2018-01-16T04:10:38.713Z,11.77
2018-01-16T04:13:06.245Z,19.50
2018-01-16T04:15:33.713Z,13.30
2018-01-16T04:18:01.193Z,18.20
2018-01-16T04:20:28.697Z,16.97
2018-01-16T04:22:56.226Z,15.90
2018-01-16T04:25:23.731Z,21.60
2018-01-16T04:27:51.205Z,21.93
2018-01-16T04:30:18.678Z,17.50
2018-01-16T04:32:46.229Z,17.80
2018-01-16T04:35:13.686Z,20.10
2018-01-16T04:37:41.167Z,19.17
2018-01-16T04:40:08.698Z,19.93
2018-01-16T04:42:36.142Z,17.90
2018-01-16T04:45:03.593Z,18.27
2018-01-16T04:47:31.177Z,13.40
2018-01-16T04:49:58.747Z,19.73
2018-01-16T04:52:26.224Z,15.13
2018-01-16T04:54:53.777Z,17.60
2018-01-16T04:57:21.252Z,19.63
2018-01-16T04:59:48.710Z,19.13
2018-01-16T05:02:16.214Z,19.93
2018-01-16T05:04:43.675Z,15.27
2018-01-16T05:07:11.141Z,13.20
2018-01-16T05:09:38.640Z,15.07
2018-01-16T05:12:06.124Z,16.30
2018-01-16T05:14:33.590Z,14.87
2018-01-16T05:17:01.184Z,17.33
2018-01-16T05:19:28.745Z,16.33
2018-01-16T05:21:56.199Z,20.00
2018-01-16T05:24:23.765Z,19.73
2018-01-16T05:26:51.318Z,18.40
2018-01-16T05:29:18.777Z,21.50
2018-01-16T05:31:46.269Z,15.40
2018-01-16T05:34:13.716Z,17.73
2018-01-16T05:36:41.197Z,15.93
2018-01-16T05:39:08.670Z,18.20
2018-01-16T05:41:36.150Z,24.10
2018-01-16T05:44:03.625Z,18.13
2018-01-16T05:46:31.141Z,14.90
2018-01-16T05:48:58.601Z,15.90
2018-01-16T05:51:26.053Z,18.13
2018-01-16T05:53:53.525Z,15.30
2018-01-16T05:56:20.999Z,26.73
2018-01-16T05:58:48.472Z,22.63
2018-01-16T06:01:15.988Z,20.70
2018-01-16T06:03:43.457Z,29.20
2018-01-16T06:06:10.929Z,25.87
2018-01-16T06:08:38.410Z,14.77
2018-01-16T06:11:05.957Z,17.83
2018-01-16T06:13:33.418Z,21.73
2018-01-16T06:16:00.895Z,16.80
2018-01-16T06:18:28.352Z,12.50
2018-01-16T06:20:55.866Z,15.23
2018-01-16T06:23:23.375Z,27.53
2018-01-16T06:25:50.850Z,20.20
2018-01-16T06:28:18.361Z,22.90
2018-01-16T06:30:45.858Z,20.90
2018-01-16T06:33:13.321Z,15.33
2018-01-16T06:35:40.830Z,16.53
2018-01-16T06:38:08.506Z,14.60
2018-01-16T06:40:36.066Z,16.60
2018-01-16T06:43:03.534Z,19.10
2018-01-16T06:45:31.020Z,14.07
2018-01-16T06:47:58.475Z,15.80
2018-01-16T06:50:25.934Z,15.37
2018-01-16T06:52:53.428Z,13.37
2018-01-16T06:55:20.958Z,13.90
2018-01-16T06:57:48.438Z,13.90
2018-01-16T07:00:16.227Z,17.70
2018-01-16T07:02:43.785Z,16.67
2018-01-16T07:05:11.360Z,18.57
2018-01-16T07:07:38.838Z,13.53
2018-01-16T07:10:06.294Z,15.00
2018-01-16T07:12:33.826Z,14.43
2018-01-16T07:15:01.298Z,18.00
2018-01-16T07:17:28.760Z,30.63
2018-01-16T07:19:56.292Z,28.90
2018-01-16T07:22:23.773Z,24.13
2018-01-16T07:24:51.316Z,19.83
2018-01-16T07:27:18.813Z,19.17
2018-01-16T07:29:46.264Z,14.20
2018-01-16T07:32:13.714Z,17.87
2018-01-16T07:34:41.881Z,14.30
2018-01-16T07:37:09.338Z,17.33
2018-01-16T07:39:36.954Z,16.37
2018-01-16T07:42:04.475Z,17.53
2018-01-16T07:44:31.993Z,20.00
2018-01-16T07:46:59.444Z,19.10
2018-01-16T07:49:27.028Z,20.60
2018-01-16T07:51:54.590Z,13.03
2018-01-16T07:54:22.070Z,19.63
2018-01-16T07:56:49.575Z,29.10
2018-01-16T07:59:17.046Z,15.63
2018-01-16T08:01:44.526Z,14.33
2018-01-16T08:04:12.058Z,16.33
2018-01-16T08:06:39.509Z,17.93
2018-01-16T08:09:06.970Z,11.20
2018-01-16T08:11:34.472Z,13.17
2018-01-16T08:14:01.935Z,15.13
2018-01-16T08:16:29.385Z,15.60
2018-01-16T08:18:56.886Z,16.30
2018-01-16T08:21:24.353Z,27.30
2018-01-16T08:23:51.828Z,20.70
2018-01-16T08:26:19.760Z,9.57
2018-01-16T08:28:47.238Z,12.47
2018-01-16T08:31:14.713Z,11.67
2018-01-16T08:33:42.225Z,19.23
2018-01-16T08:36:09.692Z,14.87
2018-01-16T08:38:37.236Z,17.23
2018-01-16T08:41:04.821Z,11.37
2018-01-16T08:43:32.296Z,11.23
2018-01-16T08:45:59.843Z,14.07
2018-01-16T08:48:27.329Z,12.47
2018-01-16T08:50:54.862Z,12.40
2018-01-16T08:53:22.352Z,22.93
2018-01-16T08:55:49.861Z,12.63
2018-01-16T08:58:17.320Z,11.53
2018-01-16T09:00:44.887Z,14.13
2018-01-16T09:03:12.372Z,9.20
2018-01-16T09:05:39.897Z,10.57
2018-01-16T09:08:07.389Z,15.60
2018-01-16T09:10:34.880Z,10.80
2018-01-16T09:13:02.358Z,11.33
2018-01-16T09:15:29.852Z,10.70
2018-01-16T09:17:57.325Z,13.03
2018-01-16T09:20:24.801Z,9.93
2018-01-16T09:22:52.531Z,11.90
2018-01-16T09:25:19.970Z,8.10
2018-01-16T09:27:47.410Z,10.70
2018-01-16T09:30:14.988Z,9.40
2018-01-16T09:32:42.460Z,9.80
2018-01-16T09:35:09.907Z,8.30
2018-01-16T09:37:37.462Z,10.77
2018-01-16T09:40:04.930Z,12.37
2018-01-16T09:42:32.377Z,7.13
2018-01-16T09:44:59.860Z,8.97
2018-01-16T09:47:27.397Z,6.33
2018-01-16T09:49:54.872Z,7.83
2018-01-16T09:52:22.346Z,7.40
2018-01-16T09:54:49.790Z,5.93
2018-01-16T09:57:17.305Z,10.10
2018-01-16T09:59:44.785Z,16.77
2018-01-16T10:02:12.257Z,12.10
2018-01-16T10:04:39.730Z,9.07
2018-01-16T10:07:07.205Z,9.80
2018-01-16T10:09:34.661Z,6.17
2018-01-16T10:12:02.156Z,9.47
2018-01-16T10:14:29.624Z,7.63
2018-01-16T10:16:57.161Z,11.33
2018-01-16T10:19:24.599Z,8.00
2018-01-16T10:21:52.062Z,8.83
2018-01-16T10:24:19.514Z,7.70
2018-01-16T10:26:47.038Z,11.17
2018-01-16T10:29:14.512Z,11.13
2018-01-16T10:31:42.570Z,9.50
2018-01-16T10:34:10.048Z,9.97
2018-01-16T10:36:37.518Z,5.67
2018-01-16T10:39:05.037Z,5.97
2018-01-16T10:41:32.503Z,11.07
2018-01-16T10:43:59.970Z,6.13
2018-01-16T10:49:01.358Z,10.90
2018-01-16T10:51:29.014Z,5.40
2018-01-16T10:53:56.478Z,55.57
2018-01-16T10:56:23.930Z,7.40
2018-01-16T10:58:51.419Z,14.97
2018-01-16T11:01:18.869Z,9.60
2018-01-16T11:03:46.310Z,5.50
2018-01-16T11:06:13.778Z,16.50
2018-01-16T11:08:41.251Z,13.50
2018-01-16T11:11:08.713Z,5.90
2018-01-16T11:13:36.446Z,4.43
2018-01-16T11:16:03.945Z,10.10
2018-01-16T11:18:31.398Z,4.00
2018-01-16T11:20:58.898Z,8.80
2018-01-16T11:23:26.348Z,5.87
2018-01-16T11:25:53.790Z,5.70
2018-01-16T11:28:21.287Z,6.87
2018-01-16T11:30:48.771Z,13.10
2018-01-16T11:33:16.234Z,11.07
2018-01-16T11:35:43.736Z,5.20
2018-01-16T11:38:11.272Z,5.60
2018-01-16T11:40:38.747Z,4.00
2018-01-16T11:43:06.230Z,4.83
2018-01-16T11:45:33.730Z,6.60
2018-01-16T11:48:01.205Z,2.97
2018-01-16T11:50:28.978Z,3.63
2018-01-16T11:52:56.436Z,9.23
2018-01-16T11:55:23.897Z,5.40
2018-01-16T11:57:51.414Z,6.33
2018-01-16T12:00:18.865Z,3.80
2018-01-16T12:02:46.337Z,4.70
2018-01-16T12:05:13.800Z,4.63
2018-01-16T12:07:41.246Z,7.50
2018-01-16T12:10:08.757Z,4.40
2018-01-16T12:12:36.222Z,7.60
2018-01-16T12:15:03.693Z,5.00
2018-01-16T12:17:31.890Z,7.10
2018-01-16T12:19:59.483Z,28.40
2018-01-16T12:22:26.955Z,5.60
2018-01-16T12:24:54.680Z,6.70
2018-01-16T12:27:22.162Z,10.20
2018-01-16T12:29:49.616Z,14.43
2018-01-16T12:32:17.102Z,4.10
2018-01-16T12:34:44.571Z,4.63
2018-01-16T12:37:12.157Z,7.43
2018-01-16T12:39:39.606Z,3.37
2018-01-16T12:42:07.070Z,5.80
2018-01-16T12:44:34.559Z,2.63
2018-01-16T12:47:02.016Z,2.90
2018-01-16T12:49:29.457Z,2.47
2018-01-16T12:51:57.010Z,2.50
2018-01-16T12:54:24.570Z,4.07
2018-01-16T12:56:52.027Z,5.00
2018-01-16T12:59:19.507Z,8.43
2018-01-16T13:01:46.981Z,3.93
2018-01-16T13:04:14.460Z,7.73
2018-01-16T13:06:41.926Z,5.67
2018-01-16T13:09:09.390Z,2.80
2018-01-16T13:11:36.884Z,5.77
2018-01-16T13:14:04.434Z,2.93
2018-01-16T13:16:31.889Z,6.37
2018-01-16T13:18:59.425Z,8.40
2018-01-16T13:21:26.871Z,6.97
2018-01-16T13:23:54.334Z,7.07
2018-01-16T13:26:21.848Z,4.90
2018-01-16T13:28:49.305Z,5.60
2018-01-16T13:31:16.748Z,6.57
2018-01-16T13:33:44.589Z,5.20
2018-01-16T13:36:12.091Z,3.57
2018-01-16T13:38:39.555Z,4.43
2018-01-16T13:41:07.043Z,5.20
2018-01-16T13:43:34.763Z,8.53
2018-01-16T13:46:02.244Z,8.43
2018-01-16T13:48:29.971Z,4.73
2018-01-16T13:50:57.452Z,14.30
2018-01-16T13:53:24.924Z,10.83
2018-01-16T13:55:52.438Z,22.13
2018-01-16T13:58:19.894Z,12.60
2018-01-16T14:00:47.369Z,6.63
2018-01-16T14:03:14.891Z,14.13
2018-01-16T14:05:42.341Z,12.63
2018-01-16T14:08:09.799Z,10.70
2018-01-16T14:10:37.282Z,11.23
2018-01-16T14:13:04.818Z,10.00
2018-01-16T14:15:32.265Z,11.03
2018-01-16T14:17:59.730Z,8.53
2018-01-16T14:20:27.314Z,17.13
2018-01-16T14:22:54.793Z,6.80
2018-01-16T14:25:22.275Z,6.20
2018-01-16T14:27:49.742Z,11.80
2018-01-16T14:30:17.221Z,15.03
2018-01-16T14:32:44.750Z,9.10
2018-01-16T14:35:12.244Z,10.50
2018-01-16T14:37:39.717Z,10.23
2018-01-16T14:40:07.195Z,17.77
2018-01-16T14:42:34.656Z,12.33
2018-01-16T14:45:02.144Z,16.10
2018-01-16T14:47:29.630Z,7.53
2018-01-16T14:49:57.202Z,12.50
2018-01-16T14:52:24.654Z,11.33
2018-01-16T14:54:52.130Z,15.53
2018-01-16T14:57:19.577Z,6.33
2018-01-16T14:59:47.042Z,8.27
2018-01-16T15:02:14.685Z,8.83
2018-01-16T15:04:42.159Z,5.20
2018-01-16T15:07:09.713Z,5.60
2018-01-16T15:09:37.244Z,4.93
2018-01-16T15:12:04.703Z,3.50
2018-01-16T15:14:32.194Z,8.80
2018-01-16T15:16:59.678Z,3.57
2018-01-16T15:19:27.139Z,6.37
2018-01-16T15:21:54.661Z,7.13
2018-01-16T15:24:22.154Z,4.10
2018-01-16T15:26:49.622Z,4.80
2018-01-16T15:29:17.097Z,7.80
2018-01-16T15:31:44.599Z,4.10
2018-01-16T15:34:12.074Z,9.03
2018-01-16T15:36:39.549Z,10.80
2018-01-16T15:39:07.146Z,5.30
2018-01-16T15:41:34.585Z,6.90
2018-01-16T15:44:02.111Z,8.07
2018-01-16T15:46:29.675Z,6.50
2018-01-16T15:48:57.126Z,5.63
2018-01-16T15:51:24.605Z,3.93
2018-01-16T15:53:52.116Z,7.90
2018-01-16T15:56:19.566Z,3.77
2018-01-16T15:58:47.123Z,11.47
2018-01-16T16:01:14.602Z,4.97
2018-01-16T16:03:42.058Z,14.00
2018-01-16T16:06:09.542Z,4.60
2018-01-16T16:08:37.143Z,4.13
2018-01-16T16:11:04.590Z,4.83
2018-01-16T16:13:32.055Z,5.00
2018-01-16T16:15:59.550Z,5.47
2018-01-16T16:18:27.007Z,15.97
2018-01-16T16:20:54.469Z,6.17
2018-01-16T16:23:21.950Z,6.07
2018-01-16T16:25:49.449Z,4.20
2018-01-16T16:28:16.944Z,10.80
2018-01-16T16:30:44.429Z,4.40
2018-01-16T16:33:11.950Z,3.67
2018-01-16T16:35:39.429Z,4.67
2018-01-16T16:38:06.933Z,4.03
2018-01-16T16:40:34.379Z,4.10
2018-01-16T16:43:01.833Z,3.73
2018-01-16T16:45:29.398Z,7.83
2018-01-16T16:47:56.842Z,5.23
2018-01-16T16:50:24.314Z,12.00
2018-01-16T16:52:51.808Z,5.17
2018-01-16T16:55:19.358Z,9.30
2018-01-16T16:57:46.832Z,8.20
2018-01-16T17:00:15.227Z,6.57
2018-01-16T17:02:42.685Z,4.10
2018-01-16T17:05:10.207Z,7.27
2018-01-16T17:07:37.665Z,5.97
2018-01-16T17:10:05.111Z,7.87
2018-01-16T17:12:33.111Z,5.17
2018-01-16T17:15:01.282Z,5.43
2018-01-16T17:17:28.730Z,8.67
2018-01-16T17:19:56.341Z,3.97
2018-01-16T17:22:23.915Z,5.00
2018-01-16T17:24:51.390Z,3.80
2018-01-16T17:27:18.833Z,4.43
2018-01-16T17:29:46.307Z,4.03
2018-01-16T17:32:13.770Z,5.43
2018-01-16T17:34:41.224Z,5.23
2018-01-16T17:37:08.719Z,6.97
2018-01-16T17:39:36.238Z,10.53
2018-01-16T17:42:03.696Z,6.27
2018-01-16T17:44:31.159Z,7.10
2018-01-16T17:46:58.643Z,8.93
2018-01-16T17:49:26.146Z,9.70
2018-01-16T17:51:53.625Z,8.80
2018-01-16T17:54:21.146Z,5.53
2018-01-16T17:56:48.621Z,9.30
2018-01-16T17:59:16.283Z,12.93
2018-01-16T18:01:43.773Z,8.70
2018-01-16T18:04:11.253Z,7.87
2018-01-16T18:06:38.716Z,8.10
2018-01-16T18:09:06.207Z,9.93
2018-01-16T18:11:33.678Z,13.67
2018-01-16T18:14:01.124Z,8.27
2018-01-16T18:16:28.594Z,9.80
2018-01-16T18:18:56.094Z,13.13
2018-01-16T18:21:23.596Z,10.77
2018-01-16T18:23:51.101Z,21.87
2018-01-16T18:26:18.692Z,13.50
2018-01-16T18:28:46.161Z,13.90
2018-01-16T18:31:13.658Z,9.17
2018-01-16T18:33:41.216Z,11.93
2018-01-16T18:36:08.710Z,10.80
2018-01-16T18:38:36.454Z,12.93
2018-01-16T18:41:03.938Z,18.30
2018-01-16T18:43:31.460Z,13.80
2018-01-16T18:45:59.014Z,11.23
2018-01-16T18:48:26.543Z,7.67
2018-01-16T18:50:54.015Z,11.27
2018-01-16T18:53:21.465Z,12.60
2018-01-16T18:55:49.023Z,15.80
2018-01-16T18:58:16.469Z,12.90
2018-01-16T19:00:43.958Z,10.00
2018-01-16T19:03:11.454Z,12.00
2018-01-16T19:05:38.910Z,11.53
2018-01-16T19:08:06.381Z,16.00
2018-01-16T19:10:33.971Z,14.93
2018-01-16T19:13:01.436Z,18.53
2018-01-16T19:15:28.915Z,20.10
2018-01-16T19:17:56.420Z,15.93
2018-01-16T19:20:23.870Z,10.43
2018-01-16T19:22:51.318Z,13.70
2018-01-16T19:25:18.800Z,10.50
2018-01-16T19:27:46.256Z,14.40
2018-01-16T19:30:13.724Z,13.90
2018-01-16T19:32:41.219Z,15.57
2018-01-16T19:35:08.677Z,22.40
2018-01-16T19:37:36.154Z,15.40
2018-01-16T19:40:03.670Z,20.17
2018-01-16T19:42:31.134Z,23.37
2018-01-16T19:44:58.609Z,13.10
2018-01-16T19:47:26.143Z,16.23
2018-01-16T19:49:53.622Z,19.23
2018-01-16T19:52:21.969Z,13.20
2018-01-16T19:54:49.452Z,18.93
2018-01-16T19:57:16.932Z,21.73
2018-01-16T19:59:44.409Z,19.70
2018-01-16T20:02:11.878Z,17.30
2018-01-16T20:04:39.367Z,10.27
2018-01-16T20:07:06.841Z,9.57
2018-01-16T20:09:34.374Z,5.33
2018-01-16T20:12:01.939Z,12.40
2018-01-16T20:14:29.438Z,11.00
2018-01-16T20:16:56.893Z,7.70
2018-01-16T20:19:24.381Z,11.50
2018-01-16T20:21:52.030Z,10.40
2018-01-16T20:24:19.505Z,14.63
2018-01-16T20:26:46.958Z,21.03
2018-01-16T20:29:14.447Z,13.57
2018-01-16T20:31:41.909Z,12.93
2018-01-16T20:34:09.354Z,9.43
2018-01-16T20:36:37.018Z,19.03
2018-01-16T20:39:05.454Z,15.73
2018-01-16T20:41:32.966Z,13.77
2018-01-16T20:44:00.443Z,6.83
2018-01-16T20:46:27.937Z,15.33
2018-01-16T20:48:55.437Z,16.90
2018-01-16T20:51:23.119Z,17.70
2018-01-16T20:53:50.614Z,21.40
2018-01-16T20:56:18.082Z,10.47
2018-01-16T20:58:45.606Z,21.17
2018-01-16T21:01:13.052Z,14.03
2018-01-16T21:03:40.516Z,21.73
2018-01-16T21:06:07.990Z,11.47
2018-01-16T21:08:35.479Z,13.20
2018-01-16T21:11:02.964Z,21.13
2018-01-16T21:13:30.433Z,20.00
2018-01-16T21:15:57.886Z,16.70
2018-01-16T21:18:25.346Z,25.67
2018-01-16T21:20:52.830Z,18.77
2018-01-16T21:23:20.365Z,16.20
2018-01-16T21:25:47.842Z,18.10
2018-01-16T21:28:15.311Z,16.20
2018-01-16T21:30:42.794Z,25.53
2018-01-16T21:33:10.706Z,32.10
2018-01-16T21:35:38.203Z,19.63
2018-01-16T21:38:05.748Z,18.03
2018-01-16T21:40:33.493Z,19.13
2018-01-16T21:43:00.970Z,25.20
2018-01-16T21:45:28.445Z,13.53
2018-01-16T21:47:55.950Z,14.23
2018-01-16T21:50:23.430Z,21.33
2018-01-16T21:52:50.889Z,19.67
2018-01-16T21:55:18.365Z,22.80
2018-01-16T21:57:45.853Z,25.07
2018-01-16T22:00:13.329Z,18.17
2018-01-16T22:02:40.898Z,26.03
2018-01-16T22:05:08.379Z,17.97
2018-01-16T22:07:35.866Z,18.93
2018-01-16T22:10:03.351Z,30.03
2018-01-16T22:12:30.839Z,18.40
2018-01-16T22:14:58.284Z,11.00
2018-01-16T22:17:25.761Z,15.93
2018-01-16T22:19:53.979Z,17.40
2018-01-16T22:22:21.463Z,19.73
2018-01-16T22:24:48.950Z,21.87
2018-01-16T22:27:16.459Z,19.57
2018-01-16T22:29:43.924Z,12.27
2018-01-16T22:32:11.408Z,16.13
2018-01-16T22:34:39.095Z,21.80
2018-01-16T22:37:06.555Z,17.20
2018-01-16T22:39:34.021Z,14.07
2018-01-16T22:42:01.509Z,19.87
2018-01-16T22:44:28.996Z,20.93
2018-01-16T22:46:56.519Z,15.43
2018-01-16T22:49:24.014Z,17.80
2018-01-16T22:51:51.471Z,19.87
2018-01-16T22:54:18.966Z,9.43
2018-01-16T22:56:46.486Z,20.00
2018-01-16T22:59:13.965Z,24.40
2018-01-16T23:01:41.449Z,17.50
2018-01-16T23:04:08.931Z,16.00
2018-01-16T23:06:36.415Z,10.57
2018-01-16T23:09:03.980Z,18.67
2018-01-16T23:11:31.452Z,18.27
2018-01-16T23:13:58.936Z,16.10
2018-01-16T23:16:26.427Z,15.10
2018-01-16T23:18:53.894Z,27.90
2018-01-16T23:21:21.394Z,14.60
2018-01-16T23:23:48.903Z,12.97
2018-01-16T23:26:17.223Z,17.80
2018-01-16T23:28:44.718Z,19.70
2018-01-16T23:31:12.220Z,10.37
2018-01-16T23:33:39.797Z,13.83
2018-01-16T23:36:07.262Z,14.93
2018-01-16T23:38:34.748Z,12.23
2018-01-16T23:41:02.210Z,15.33
2018-01-16T23:43:29.675Z,16.43
2018-01-16T23:45:57.174Z,19.37
2018-01-16T23:48:24.649Z,15.57
2018-01-16T23:50:52.125Z,12.57
2018-01-16T23:53:19.602Z,11.90
2018-01-16T23:55:47.062Z,18.13
2018-01-16T23:58:14.533Z,20.50
